Hovedside
METAR-TAF:

METAR-TAF

Lufthavner :

Kittilä, Finland

Kittilä lufthavn

breddegrad: 67-42N, lengdegrad: 024-51E, høyde over havet: 196 m

Gjeldene værobservasjon

Denne rapporten ble laget for 36 minutter siden, klokken 09:50 UTC
Vind 7 kt fra Øst-sørøst, skiftende mellom Øst og Sør-sørøst
Temperatur 15°C
Luftfuktighet 48%
Trykk 995 hPa
Sikt 10 km eller mer
ingen skyer under 1500 m og ingen bygeskyer

METAR: EFKT 250950Z AUTO 12007KT 080V160 CAVOK 15/04 Q0995

Tid: 13:26 (10:26 UTC)

Varsel

Denne rapporten ble laget for 8 timer og 0 minutter siden, klokken 02:26 UTC
Varsel gyldig fra 25. klokken 03 UTC til 25. klokken 07 UTC
Vind 5 kt fra Øst-sørøst
Sikt 10 km eller mer
ingen skyer under 1500 m og ingen bygeskyer

TAF: EFKT 250226Z 2503/2507 12005KT CAVOK

Værobservasjoner og værvarsel for over 4000 flyplasser (METAR- og TAF-rapporter).

Tilgjengelige stasjoner er representert av de røde og gule prikkene på kartet.

Hold musepekeren over prikken for å se navnet på stasjonen.

Klikk så for å se værobservasjoner og -varsler.

For å forandre kartet kan du klikke på den grønne knappen med svart kryss for å zoome inn, på den grønne knappen med strek for å zoome ut, eller på de grønne pilene for å se tilstøtende kart.


METAR-TAF: